Time;durP1;ratioP1;P1;durP2;ratioP2;P2;SDS_P1;SDS_P2;PMS_P1;PMS_P2;Temp;Humidity;BMP_temperature;BMP_pressure;BME280_temperature;BME280_humidity;BME280_pressure;Samples;Min_cycle;Max_cycle;Signal;HPM_P1;HPM_P2
2021/09/17 00:02:00;;;;;;;;;;;25.00;72.30;;;;;;5075227;28;19924;-57
2021/09/17 00:04:27;;;;;;;;;;;25.00;72.40;;;;;;5056961;28;19947;-57
2021/09/17 00:06:54;;;;;;;;;;;25.00;72.30;;;;;;5073632;28;19924;-58
2021/09/17 00:09:21;;;;;;;;;;;24.90;72.20;;;;;;5074453;28;20447;-58
2021/09/17 00:11:48;;;;;;;;;;;24.90;72.20;;;;;;5073643;28;19978;-55
2021/09/17 00:14:16;;;;;;;;;;;24.90;72.20;;;;;;5074598;28;20320;-55
2021/09/17 00:16:43;;;;;;;;;;;24.90;72.10;;;;;;5073226;28;20380;-57
2021/09/17 00:19:10;;;;;;;;;;;24.90;72.10;;;;;;5074773;28;20261;-56
2021/09/17 00:21:37;;;;;;;;;;;24.90;72.00;;;;;;5074368;28;19955;-56
2021/09/17 00:24:04;;;;;;;;;;;24.90;72.00;;;;;;5074195;28;20007;-55
2021/09/17 00:26:31;;;;;;;;;;;24.90;72.00;;;;;;5073025;28;19999;-52
2021/09/17 00:28:58;;;;;;;;;;;24.90;72.00;;;;;;5074548;28;20295;-52
2021/09/17 00:31:25;;;;;;;;;;;24.90;71.90;;;;;;5073366;28;19924;-57
2021/09/17 00:33:52;;;;;;;;;;;24.90;71.90;;;;;;5066969;28;19932;-57
2021/09/17 00:36:19;;;;;;;;;;;24.90;71.80;;;;;;5064043;28;19928;-54
2021/09/17 00:38:46;;;;;;;;;;;24.90;71.80;;;;;;5074506;28;19989;-55
2021/09/17 00:41:13;;;;;;;;;;;24.90;71.80;;;;;;5073964;28;19960;-57
2021/09/17 00:43:40;;;;;;;;;;;24.90;71.70;;;;;;5074372;28;19970;-56
2021/09/17 00:46:07;;;;;;;;;;;24.90;71.70;;;;;;5074081;28;20344;-57
2021/09/17 00:48:34;;;;;;;;;;;24.90;71.60;;;;;;5072865;28;20004;-55
2021/09/17 00:51:01;;;;;;;;;;;24.90;71.60;;;;;;5072633;28;19924;-55
2021/09/17 00:53:33;;;;;;;;;;;24.90;71.60;;;;;;5074252;28;20275;-56
2021/09/17 00:56:00;;;;;;;;;;;24.90;71.50;;;;;;5056796;28;19978;-55
2021/09/17 00:58:27;;;;;;;;;;;24.90;71.50;;;;;;5071399;28;20277;-54
2021/09/17 01:00:54;;;;;;;;;;;24.90;71.50;;;;;;5073772;28;19985;-57
2021/09/17 01:03:22;;;;;;;;;;;24.90;71.50;;;;;;5055276;28;19928;-57
2021/09/17 01:05:49;;;;;;;;;;;24.90;71.50;;;;;;5073597;28;19979;-58
2021/09/17 01:08:16;;;;;;;;;;;24.90;71.40;;;;;;5073575;28;19994;-58
2021/09/17 01:10:43;;;;;;;;;;;24.90;71.30;;;;;;5071301;28;19924;-57
2021/09/17 01:13:10;;;;;;;;;;;24.90;71.30;;;;;;5071614;28;19963;-56
2021/09/17 01:15:37;;;;;;;;;;;24.90;71.30;;;;;;5060936;28;19929;-58
2021/09/17 01:18:04;;;;;;;;;;;24.90;71.30;;;;;;5067659;28;19967;-53
2021/09/17 01:20:31;;;;;;;;;;;24.90;71.30;;;;;;5072469;28;19993;-57
2021/09/17 01:22:58;;;;;;;;;;;24.90;71.20;;;;;;5062950;28;20350;-58
2021/09/17 01:25:24;;;;;;;;;;;24.90;71.10;;;;;;5057092;28;19924;-58
2021/09/17 01:27:53;;;;;;;;;;;24.90;71.10;;;;;;5057253;28;20008;-58
2021/09/17 01:30:20;;;;;;;;;;;24.90;71.10;;;;;;5064708;28;20346;-58
2021/09/17 01:32:48;;;;;;;;;;;24.90;71.10;;;;;;5073461;28;19972;-56
2021/09/17 01:35:16;;;;;;;;;;;24.90;71.00;;;;;;5068085;28;20369;-57
2021/09/17 01:37:43;;;;;;;;;;;24.80;70.90;;;;;;5063058;28;19960;-58
2021/09/17 01:40:11;;;;;;;;;;;24.90;70.90;;;;;;5077968;28;20044;-59
2021/09/17 01:42:38;;;;;;;;;;;24.90;70.90;;;;;;5078002;28;20424;-59
2021/09/17 01:45:06;;;;;;;;;;;24.90;70.90;;;;;;5079876;28;20280;-58
2021/09/17 01:47:33;;;;;;;;;;;24.90;70.90;;;;;;5091027;28;20033;-58
2021/09/17 01:50:00;;;;;;;;;;;24.90;70.90;;;;;;5061472;28;19931;-58
2021/09/17 01:52:27;;;;;;;;;;;24.90;70.80;;;;;;5094989;28;19924;-59
2021/09/17 01:54:54;;;;;;;;;;;24.90;70.80;;;;;;5076268;28;20031;-58
2021/09/17 01:57:21;;;;;;;;;;;24.90;70.80;;;;;;5076176;28;19950;-58
2021/09/17 01:59:48;;;;;;;;;;;24.90;70.80;;;;;;5075965;28;19990;-58
2021/09/17 02:02:15;;;;;;;;;;;24.80;70.70;;;;;;5074715;28;19925;-57
2021/09/17 02:04:42;;;;;;;;;;;24.90;70.70;;;;;;5076131;28;20375;-58
2021/09/17 02:07:09;;;;;;;;;;;24.90;70.70;;;;;;5075743;28;19928;-58
2021/09/17 02:09:36;;;;;;;;;;;24.80;70.50;;;;;;5076962;28;19931;-58
2021/09/17 02:12:03;;;;;;;;;;;24.90;70.60;;;;;;5075705;28;19955;-58
2021/09/17 02:14:30;;;;;;;;;;;24.80;70.50;;;;;;5078020;28;20008;-58
2021/09/17 02:16:57;;;;;;;;;;;24.90;70.50;;;;;;5076677;28;20384;-58
2021/09/17 02:19:24;;;;;;;;;;;24.90;70.50;;;;;;5076827;28;19959;-58
2021/09/17 02:21:54;;;;;;;;;;;24.80;70.30;;;;;;5077092;28;19993;-57
2021/09/17 02:24:22;;;;;;;;;;;24.80;70.30;;;;;;5076678;28;19929;-58
2021/09/17 02:26:49;;;;;;;;;;;24.80;70.20;;;;;;5076770;28;19928;-58
2021/09/17 02:29:16;;;;;;;;;;;24.80;70.20;;;;;;5075497;28;20226;-58
2021/09/17 02:31:43;;;;;;;;;;;24.80;70.20;;;;;;5075519;28;19966;-59
2021/09/17 02:34:10;;;;;;;;;;;24.80;70.20;;;;;;5072514;28;20336;-58
2021/09/17 02:36:37;;;;;;;;;;;24.80;70.20;;;;;;5060366;28;20034;-59
2021/09/17 02:39:04;;;;;;;;;;;24.80;70.20;;;;;;5062654;28;20031;-57
2021/09/17 02:41:33;;;;;;;;;;;24.90;70.20;;;;;;5075345;28;19925;-58
2021/09/17 02:44:01;;;;;;;;;;;24.80;70.10;;;;;;5076297;28;19931;-57
2021/09/17 02:46:28;;;;;;;;;;;24.80;70.00;;;;;;5076399;28;19924;-58
2021/09/17 02:48:55;;;;;;;;;;;24.80;70.00;;;;;;5076732;28;19924;-58
2021/09/17 02:51:22;;;;;;;;;;;24.80;70.00;;;;;;5075196;28;19928;-57
2021/09/17 02:53:49;;;;;;;;;;;24.80;70.00;;;;;;5075736;28;19954;-57
2021/09/17 02:56:15;;;;;;;;;;;24.80;69.90;;;;;;5075326;28;20399;-57
2021/09/17 02:58:42;;;;;;;;;;;24.80;69.90;;;;;;5066037;28;19925;-59
2021/09/17 03:01:09;;;;;;;;;;;24.80;69.90;;;;;;5075923;28;19974;-58
2021/09/17 03:03:37;;;;;;;;;;;24.80;69.90;;;;;;5077100;28;20381;-58
2021/09/17 03:06:04;;;;;;;;;;;24.80;69.80;;;;;;5075855;28;19967;-58
2021/09/17 03:08:31;;;;;;;;;;;24.80;69.80;;;;;;5075852;28;19931;-58
2021/09/17 03:10:59;;;;;;;;;;;24.80;69.70;;;;;;5074601;28;20015;-57
2021/09/17 03:13:29;;;;;;;;;;;24.80;69.70;;;;;;5074761;28;20002;-58
2021/09/17 03:15:56;;;;;;;;;;;24.80;69.70;;;;;;5075879;28;19924;-58
2021/09/17 03:18:23;;;;;;;;;;;24.80;69.60;;;;;;5082235;28;19968;-58
2021/09/17 03:20:51;;;;;;;;;;;24.80;69.60;;;;;;5092584;28;19967;-58
2021/09/17 03:23:18;;;;;;;;;;;24.80;69.60;;;;;;5083745;28;20001;-58
2021/09/17 03:25:45;;;;;;;;;;;24.80;69.60;;;;;;5080955;28;19931;-58
2021/09/17 03:28:12;;;;;;;;;;;24.80;69.50;;;;;;5090407;28;20007;-59
2021/09/17 03:30:39;;;;;;;;;;;24.80;69.50;;;;;;5081496;28;19979;-59
2021/09/17 03:33:09;;;;;;;;;;;24.80;69.50;;;;;;5062763;28;19932;-58
2021/09/17 03:35:37;;;;;;;;;;;24.80;69.50;;;;;;5078439;28;20431;-57
2021/09/17 03:38:05;;;;;;;;;;;24.80;69.40;;;;;;5092093;28;19966;-56
2021/09/17 03:40:33;;;;;;;;;;;24.80;69.50;;;;;;5090710;28;19960;-58
2021/09/17 03:43:00;;;;;;;;;;;24.80;69.40;;;;;;5075446;28;20040;-57
2021/09/17 03:45:27;;;;;;;;;;;24.80;69.40;;;;;;5073611;28;20353;-57
2021/09/17 03:47:54;;;;;;;;;;;24.80;69.40;;;;;;5073878;28;19924;-58
2021/09/17 03:50:21;;;;;;;;;;;24.80;69.40;;;;;;5073227;28;19924;-58
2021/09/17 03:52:48;;;;;;;;;;;24.80;69.40;;;;;;5072827;28;19972;-58
2021/09/17 03:55:15;;;;;;;;;;;24.80;69.30;;;;;;5072857;28;19924;-57
2021/09/17 03:57:42;;;;;;;;;;;24.80;69.30;;;;;;5072984;28;20446;-59
2021/09/17 04:00:09;;;;;;;;;;;24.80;69.30;;;;;;5074323;28;19928;-57
2021/09/17 04:02:36;;;;;;;;;;;24.80;69.30;;;;;;5075097;28;19924;-58
2021/09/17 04:05:04;;;;;;;;;;;24.80;69.30;;;;;;5061870;28;19963;-59
2021/09/17 04:07:36;;;;;;;;;;;24.80;69.20;;;;;;5058683;28;19924;-58
2021/09/17 04:10:03;;;;;;;;;;;24.70;69.10;;;;;;5069365;28;19925;-58
2021/09/17 04:12:30;;;;;;;;;;;24.80;69.20;;;;;;5074783;28;20266;-59
2021/09/17 04:14:58;;;;;;;;;;;24.80;69.20;;;;;;5084948;28;19931;-57
2021/09/17 04:17:25;;;;;;;;;;;24.80;69.20;;;;;;5074515;28;19929;-59
2021/09/17 04:19:52;;;;;;;;;;;24.80;69.10;;;;;;5066790;28;20326;-58
2021/09/17 04:22:19;;;;;;;;;;;24.80;69.10;;;;;;5066163;28;19939;-58
2021/09/17 04:24:46;;;;;;;;;;;24.70;69.00;;;;;;5064664;28;20049;-58
2021/09/17 04:27:13;;;;;;;;;;;24.70;69.00;;;;;;5074534;28;19972;-58
2021/09/17 04:29:40;;;;;;;;;;;24.70;69.00;;;;;;5068427;28;19959;-58
2021/09/17 04:32:07;;;;;;;;;;;24.70;69.00;;;;;;5064856;28;20017;-58
2021/09/17 04:34:34;;;;;;;;;;;24.70;68.90;;;;;;5086876;28;19930;-58
2021/09/17 04:37:01;;;;;;;;;;;24.70;68.90;;;;;;5074377;28;19928;-57
2021/09/17 04:39:28;;;;;;;;;;;24.70;68.90;;;;;;5074554;28;20964;-58
2021/09/17 04:41:55;;;;;;;;;;;24.70;68.80;;;;;;5072927;28;20394;-58
2021/09/17 04:44:22;;;;;;;;;;;24.70;68.80;;;;;;5074545;28;20273;-58
2021/09/17 04:46:49;;;;;;;;;;;24.70;68.80;;;;;;5055860;28;20346;-56
2021/09/17 04:49:16;;;;;;;;;;;24.70;68.70;;;;;;5072272;28;19948;-57
2021/09/17 04:51:43;;;;;;;;;;;24.70;68.70;;;;;;5072782;28;19977;-57
2021/09/17 04:54:12;;;;;;;;;;;24.70;68.70;;;;;;5072751;28;19977;-58
2021/09/17 04:56:40;;;;;;;;;;;24.70;68.70;;;;;;5073379;28;20322;-58
2021/09/17 04:59:07;;;;;;;;;;;24.70;68.60;;;;;;5072788;28;19971;-58
2021/09/17 05:01:34;;;;;;;;;;;24.70;68.60;;;;;;5073823;28;19925;-55
2021/09/17 05:04:02;;;;;;;;;;;24.70;68.60;;;;;;5072427;28;19925;-58
2021/09/17 05:06:31;;;;;;;;;;;24.70;68.50;;;;;;5072678;28;19924;-58
2021/09/17 05:08:58;;;;;;;;;;;24.70;68.50;;;;;;5072685;28;19924;-58
2021/09/17 05:11:25;;;;;;;;;;;24.70;68.50;;;;;;5073232;28;19925;-58
2021/09/17 05:13:52;;;;;;;;;;;24.70;68.50;;;;;;5073771;28;20432;-56
2021/09/17 05:16:19;;;;;;;;;;;24.70;68.50;;;;;;5073679;28;19924;-58
2021/09/17 05:18:46;;;;;;;;;;;24.70;68.40;;;;;;5073326;28;19963;-59
2021/09/17 05:21:13;;;;;;;;;;;24.70;68.40;;;;;;5073888;28;20331;-58
2021/09/17 05:23:40;;;;;;;;;;;24.70;68.40;;;;;;5073960;28;20277;-57
2021/09/17 05:26:07;;;;;;;;;;;24.70;68.30;;;;;;5069148;28;20400;-59
2021/09/17 05:28:34;;;;;;;;;;;24.70;68.30;;;;;;5056866;28;19925;-58
2021/09/17 05:31:01;;;;;;;;;;;24.70;68.20;;;;;;5058575;28;19973;-58
2021/09/17 05:33:28;;;;;;;;;;;24.70;68.20;;;;;;5072438;28;20323;-58
2021/09/17 05:35:56;;;;;;;;;;;24.80;68.20;;;;;;5074321;28;20077;-59
2021/09/17 05:38:23;;;;;;;;;;;24.80;68.10;;;;;;5090525;28;19930;-58
2021/09/17 05:40:50;;;;;;;;;;;24.80;68.10;;;;;;5091743;28;19932;-57
2021/09/17 05:43:17;;;;;;;;;;;24.80;68.00;;;;;;5071480;28;19925;-58
2021/09/17 05:45:44;;;;;;;;;;;24.80;67.90;;;;;;5071310;28;19924;-58
2021/09/17 05:48:11;;;;;;;;;;;24.70;67.80;;;;;;5067665;28;19994;-58
2021/09/17 05:50:38;;;;;;;;;;;24.80;67.80;;;;;;5073183;28;19925;-58
2021/09/17 05:53:04;;;;;;;;;;;24.80;67.80;;;;;;5072342;28;20330;-58
2021/09/17 05:55:31;;;;;;;;;;;24.80;67.70;;;;;;5073035;28;19963;-58
2021/09/17 05:57:58;;;;;;;;;;;24.80;67.70;;;;;;5072876;28;19931;-58
2021/09/17 06:00:25;;;;;;;;;;;24.80;67.60;;;;;;5073407;28;20430;-59
2021/09/17 06:02:52;;;;;;;;;;;24.80;67.50;;;;;;5073077;28;19987;-57
2021/09/17 06:05:19;;;;;;;;;;;24.80;67.40;;;;;;5073398;28;19951;-58
2021/09/17 06:07:46;;;;;;;;;;;24.90;67.40;;;;;;5072095;28;20015;-58
2021/09/17 06:10:14;;;;;;;;;;;24.90;67.40;;;;;;5073270;28;19924;-58
2021/09/17 06:12:41;;;;;;;;;;;24.80;67.20;;;;;;5071929;28;19978;-58
2021/09/17 06:15:09;;;;;;;;;;;24.90;67.30;;;;;;5073349;28;19928;-58
2021/09/17 06:17:36;;;;;;;;;;;24.90;67.30;;;;;;5078272;28;19924;-57
2021/09/17 06:20:04;;;;;;;;;;;24.90;67.20;;;;;;5080511;28;20288;-58
2021/09/17 06:22:31;;;;;;;;;;;24.90;67.20;;;;;;5057361;28;20011;-57
2021/09/17 06:24:58;;;;;;;;;;;24.80;67.00;;;;;;5063394;28;19983;-58
2021/09/17 06:27:25;;;;;;;;;;;24.90;67.10;;;;;;5073484;28;19925;-58
2021/09/17 06:29:52;;;;;;;;;;;24.90;67.10;;;;;;5061089;28;20414;-57
2021/09/17 06:32:19;;;;;;;;;;;24.90;67.00;;;;;;5076601;28;19928;-59
2021/09/17 06:34:46;;;;;;;;;;;24.90;66.90;;;;;;5075826;28;20362;-59
2021/09/17 06:37:13;;;;;;;;;;;24.90;66.90;;;;;;5076839;28;19972;-57
2021/09/17 06:39:44;;;;;;;;;;;24.90;66.80;;;;;;5057814;28;19971;-56
2021/09/17 06:42:11;;;;;;;;;;;24.90;66.80;;;;;;5074876;28;20265;-57
2021/09/17 06:44:38;;;;;;;;;;;24.90;66.80;;;;;;5075054;28;20338;-58
2021/09/17 06:47:05;;;;;;;;;;;24.90;66.70;;;;;;5075373;28;19925;-55
2021/09/17 06:49:32;;;;;;;;;;;24.90;66.50;;;;;;5075222;28;20343;-57
2021/09/17 06:51:59;;;;;;;;;;;24.90;66.50;;;;;;5062208;28;20296;-59
2021/09/17 06:54:26;;;;;;;;;;;24.90;66.40;;;;;;5072599;28;19971;-58
2021/09/17 06:56:53;;;;;;;;;;;24.90;66.40;;;;;;5076073;28;19978;-56
2021/09/17 06:59:20;;;;;;;;;;;24.90;67.10;;;;;;5073694;28;19936;-58
2021/09/17 07:01:47;;;;;;;;;;;24.90;66.20;;;;;;5076060;28;19994;-58
2021/09/17 07:04:18;;;;;;;;;;;24.90;66.20;;;;;;5076306;28;19925;-58
2021/09/17 07:06:45;;;;;;;;;;;24.90;66.10;;;;;;5076053;28;19998;-58
2021/09/17 07:09:12;;;;;;;;;;;24.90;66.10;;;;;;5076075;28;19924;-58
2021/09/17 07:11:39;;;;;;;;;;;24.90;66.00;;;;;;5075827;28;20400;-56
2021/09/17 07:14:06;;;;;;;;;;;24.90;65.90;;;;;;5069960;28;20408;-57
2021/09/17 07:16:33;;;;;;;;;;;24.90;65.90;;;;;;5058272;28;19925;-59
2021/09/17 07:19:00;;;;;;;;;;;24.90;65.90;;;;;;5061697;28;19925;-57
2021/09/17 07:21:27;;;;;;;;;;;24.90;65.80;;;;;;5074667;28;19974;-59
2021/09/17 07:23:54;;;;;;;;;;;24.90;65.80;;;;;;5073665;28;19924;-58
2021/09/17 07:26:21;;;;;;;;;;;24.90;65.70;;;;;;5060150;28;19928;-53
2021/09/17 07:28:48;;;;;;;;;;;25.00;65.60;;;;;;5075367;28;19954;-58
2021/09/17 07:31:15;;;;;;;;;;;25.00;65.40;;;;;;5075966;28;20359;-53
2021/09/17 07:33:42;;;;;;;;;;;25.00;65.30;;;;;;5075272;28;19925;-57
2021/09/17 07:36:09;;;;;;;;;;;25.10;65.40;;;;;;5074784;28;19925;-56
2021/09/17 07:38:36;;;;;;;;;;;25.10;65.30;;;;;;5074431;28;20003;-58
2021/09/17 07:41:03;;;;;;;;;;;25.10;65.10;;;;;;5072860;28;19964;-58
2021/09/17 07:43:30;;;;;;;;;;;25.10;65.00;;;;;;5074122;28;20018;-55
2021/09/17 07:45:57;;;;;;;;;;;25.10;65.00;;;;;;5076238;28;20498;-58
2021/09/17 07:48:24;;;;;;;;;;;25.10;65.00;;;;;;5075108;28;19964;-58
2021/09/17 07:50:51;;;;;;;;;;;25.10;64.90;;;;;;5073694;28;19928;-56
2021/09/17 07:53:17;;;;;;;;;;;25.10;64.90;;;;;;5075137;28;20011;-58
2021/09/17 07:55:44;;;;;;;;;;;25.10;64.80;;;;;;5073470;28;19994;-57
2021/09/17 07:58:13;;;;;;;;;;;25.20;64.70;;;;;;5074916;28;20304;-57
2021/09/17 08:00:40;;;;;;;;;;;25.20;64.70;;;;;;5074842;28;19924;-57
2021/09/17 08:03:08;;;;;;;;;;;25.20;64.50;;;;;;5067361;28;19924;-57
2021/09/17 08:05:35;;;;;;;;;;;25.20;64.50;;;;;;5058786;28;19960;-58
2021/09/17 08:08:02;;;;;;;;;;;25.20;64.40;;;;;;5070679;28;19924;-58
2021/09/17 08:10:29;;;;;;;;;;;25.20;64.30;;;;;;5086071;28;19970;-58
2021/09/17 08:12:58;;;;;;;;;;;25.20;64.20;;;;;;5073412;28;19979;-57
2021/09/17 08:15:30;;;;;;;;;;;25.30;64.30;;;;;;5070377;28;19924;-57
2021/09/17 08:17:57;;;;;;;;;;;25.30;64.20;;;;;;5061405;28;19925;-58
2021/09/17 08:20:24;;;;;;;;;;;25.30;64.00;;;;;;5074451;28;19978;-57
2021/09/17 08:22:51;;;;;;;;;;;25.30;63.90;;;;;;5073111;28;19924;-58
2021/09/17 08:25:18;;;;;;;;;;;25.30;63.80;;;;;;5058199;28;19924;-58
2021/09/17 08:27:45;;;;;;;;;;;25.30;63.80;;;;;;5057584;28;20023;-57
2021/09/17 08:30:13;;;;;;;;;;;25.30;63.80;;;;;;5074827;28;19924;-58
2021/09/17 08:32:40;;;;;;;;;;;25.30;63.90;;;;;;5073442;28;19999;-58
2021/09/17 08:35:09;;;;;;;;;;;25.30;63.80;;;;;;5072523;28;19928;-58
2021/09/17 08:37:37;;;;;;;;;;;25.30;63.60;;;;;;5073506;28;19967;-58
2021/09/17 08:40:06;;;;;;;;;;;25.30;63.80;;;;;;5072634;28;20391;-58
2021/09/17 08:42:33;;;;;;;;;;;25.30;63.70;;;;;;5074181;28;19925;-58
2021/09/17 08:45:02;;;;;;;;;;;25.30;63.50;;;;;;5072569;28;19974;-58
2021/09/17 08:47:29;;;;;;;;;;;25.30;63.40;;;;;;5074280;28;19928;-58
2021/09/17 08:49:56;;;;;;;;;;;25.30;63.60;;;;;;5072915;28;20007;-56
2021/09/17 08:52:23;;;;;;;;;;;25.30;63.50;;;;;;5074012;28;20073;-58
2021/09/17 08:54:50;;;;;;;;;;;25.30;63.30;;;;;;5072979;28;19929;-58
2021/09/17 08:57:17;;;;;;;;;;;25.30;63.20;;;;;;5073884;28;19966;-58
2021/09/17 08:59:44;;;;;;;;;;;25.40;63.10;;;;;;5072669;28;20011;-56
2021/09/17 09:02:22;;;;;;;;;;;25.30;63.10;;;;;;5064582;28;19929;-58
2021/09/17 09:04:56;;;;;;;;;;;25.40;63.00;;;;;;5066096;28;19974;-58
2021/09/17 09:07:26;;;;;;;;;;;25.40;62.90;;;;;;5073057;28;20404;-60
2021/09/17 09:09:54;;;;;;;;;;;25.50;62.90;;;;;;5073036;28;19924;-59
2021/09/17 09:12:23;;;;;;;;;;;25.50;62.90;;;;;;5080638;28;19980;-59
2021/09/17 09:15:04;;;;;;;;;;;25.50;62.80;;;;;;5077315;28;20407;-58
2021/09/17 09:17:35;;;;;;;;;;;25.50;62.70;;;;;;5062699;28;19925;-58
2021/09/17 09:20:19;;;;;;;;;;;25.50;62.70;;;;;;5072497;28;19978;-58
2021/09/17 09:23:02;;;;;;;;;;;25.50;62.70;;;;;;5073681;28;19964;-58
2021/09/17 09:25:29;;;;;;;;;;;25.60;62.70;;;;;;5062934;28;19983;-58
2021/09/17 09:28:11;;;;;;;;;;;25.60;62.50;;;;;;5071497;28;20345;-58
2021/09/17 09:30:38;;;;;;;;;;;25.60;62.50;;;;;;5057561;28;19925;-58
2021/09/17 09:33:21;;;;;;;;;;;25.60;62.40;;;;;;5066740;28;19928;-57
2021/09/17 09:36:00;;;;;;;;;;;25.60;62.40;;;;;;5072528;28;19964;-57
2021/09/17 09:38:37;;;;;;;;;;;25.60;62.30;;;;;;5062595;28;19964;-59
2021/09/17 09:41:05;;;;;;;;;;;25.70;62.40;;;;;;5067495;28;19954;-59
2021/09/17 09:43:33;;;;;;;;;;;25.60;62.20;;;;;;5073389;28;19925;-57
2021/09/17 09:46:19;;;;;;;;;;;25.60;62.10;;;;;;5064042;28;19971;-57
2021/09/17 09:49:06;;;;;;;;;;;25.70;62.10;;;;;;5068482;28;20018;-58
2021/09/17 09:51:34;;;;;;;;;;;25.70;62.00;;;;;;5073765;28;20003;-57
2021/09/17 09:54:03;;;;;;;;;;;25.70;61.90;;;;;;5073722;28;20322;-58
2021/09/17 09:56:32;;;;;;;;;;;25.70;61.60;;;;;;5059989;28;19964;-56
2021/09/17 09:59:04;;;;;;;;;;;25.70;61.40;;;;;;5070862;28;20322;-55
2021/09/17 10:01:33;;;;;;;;;;;25.70;61.20;;;;;;5077395;28;19967;-58
2021/09/17 10:04:03;;;;;;;;;;;25.70;61.20;;;;;;5067116;28;20420;-56
2021/09/17 10:06:39;;;;;;;;;;;25.70;61.10;;;;;;5070037;28;19925;-55
2021/09/17 10:09:08;;;;;;;;;;;25.70;60.90;;;;;;5067567;28;19929;-58
2021/09/17 10:11:36;;;;;;;;;;;25.70;60.80;;;;;;5069543;28;19924;-57
2021/09/17 10:14:05;;;;;;;;;;;25.70;60.80;;;;;;5076075;28;20383;-58
2021/09/17 10:16:33;;;;;;;;;;;25.70;60.80;;;;;;5076924;28;19928;-57
2021/09/17 10:19:00;;;;;;;;;;;25.70;60.70;;;;;;5076772;28;20346;-58
2021/09/17 10:21:46;;;;;;;;;;;25.70;60.70;;;;;;5076835;28;19964;-58
2021/09/17 10:24:25;;;;;;;;;;;25.70;60.60;;;;;;5075914;28;19951;-58
2021/09/17 10:27:05;;;;;;;;;;;25.70;60.60;;;;;;5075619;28;19928;-57
2021/09/17 10:29:37;;;;;;;;;;;25.70;60.40;;;;;;5067761;28;19979;-57
2021/09/17 10:32:06;;;;;;;;;;;25.70;60.40;;;;;;5069136;28;19925;-58
2021/09/17 10:34:35;;;;;;;;;;;25.70;60.40;;;;;;5076642;28;20011;-57
2021/09/17 10:37:03;;;;;;;;;;;25.70;60.40;;;;;;5069616;28;19964;-58
2021/09/17 10:39:31;;;;;;;;;;;25.70;60.60;;;;;;5066477;28;20027;-57
2021/09/17 10:42:10;;;;;;;;;;;25.70;60.70;;;;;;5076534;28;20380;-58
2021/09/17 10:44:55;;;;;;;;;;;25.70;60.70;;;;;;5082542;28;19959;-57
2021/09/17 10:47:45;;;;;;;;;;;25.70;60.80;;;;;;5084124;28;19982;-57
2021/09/17 10:50:13;;;;;;;;;;;25.70;60.80;;;;;;5073382;28;20344;-57
2021/09/17 10:52:42;;;;;;;;;;;25.70;60.70;;;;;;5074954;28;20420;-58
2021/09/17 10:55:09;;;;;;;;;;;25.70;60.60;;;;;;5076051;28;20392;-58
2021/09/17 10:58:05;;;;;;;;;;;25.70;60.50;;;;;;5075963;28;19925;-57
2021/09/17 11:00:52;;;;;;;;;;;25.70;60.50;;;;;;5066298;28;19994;-58
2021/09/17 11:03:38;;;;;;;;;;;25.70;60.50;;;;;;5076090;28;19924;-58
2021/09/17 11:06:17;;;;;;;;;;;25.70;60.50;;;;;;5075111;28;19978;-57
2021/09/17 11:08:45;;;;;;;;;;;25.70;61.10;;;;;;5106174;28;19964;-58
2021/09/17 11:11:25;;;;;;;;;;;25.70;60.40;;;;;;5062095;28;19928;-58
2021/09/17 11:13:53;;;;;;;;;;;25.70;60.10;;;;;;5074141;28;19936;-57
2021/09/17 11:16:21;;;;;;;;;;;25.70;59.70;;;;;;5075788;28;19936;-57
2021/09/17 11:18:50;;;;;;;;;;;25.60;59.30;;;;;;5086390;28;19975;-58
2021/09/17 11:21:18;;;;;;;;;;;25.60;59.00;;;;;;5078614;28;19924;-57
2021/09/17 11:23:49;;;;;;;;;;;25.60;58.50;;;;;;5073219;28;19978;-57
2021/09/17 11:26:19;;;;;;;;;;;25.60;58.20;;;;;;5075380;28;19964;-57
2021/09/17 11:28:58;;;;;;;;;;;25.60;58.00;;;;;;5075266;28;19928;-58
2021/09/17 11:31:28;;;;;;;;;;;25.60;57.60;;;;;;5075525;28;19924;-57
2021/09/17 11:33:56;;;;;;;;;;;25.60;57.40;;;;;;5075835;28;19924;-58
2021/09/17 11:36:44;;;;;;;;;;;25.60;57.10;;;;;;5085872;28;19924;-58
2021/09/17 11:39:24;;;;;;;;;;;25.50;56.80;;;;;;5080496;28;19959;-58
2021/09/17 11:41:51;;;;;;;;;;;25.50;56.70;;;;;;5075710;28;19990;-57
2021/09/17 11:44:36;;;;;;;;;;;25.40;56.60;;;;;;5062323;28;19925;-54
2021/09/17 11:47:04;;;;;;;;;;;25.40;56.60;;;;;;5085520;28;19993;-58
2021/09/17 11:49:33;;;;;;;;;;;25.30;56.70;;;;;;5066963;28;20020;-58
2021/09/17 11:52:05;;;;;;;;;;;25.30;56.80;;;;;;5068866;28;19932;-57
2021/09/17 11:54:33;;;;;;;;;;;25.30;56.80;;;;;;5075127;28;20011;-56
2021/09/17 11:57:10;;;;;;;;;;;25.30;56.80;;;;;;5073794;28;19924;-58
2021/09/17 11:59:41;;;;;;;;;;;25.20;56.50;;;;;;5074945;28;19924;-56
2021/09/17 12:02:26;;;;;;;;;;;25.30;56.50;;;;;;5073835;28;19974;-57
2021/09/17 12:04:58;;;;;;;;;;;25.30;56.50;;;;;;5072685;28;19924;-57
2021/09/17 12:07:26;;;;;;;;;;;25.30;56.50;;;;;;5074884;28;20391;-56
2021/09/17 12:09:53;;;;;;;;;;;25.30;56.40;;;;;;5074733;28;19959;-58
2021/09/17 12:12:30;;;;;;;;;;;25.30;56.40;;;;;;5074634;28;19967;-57
2021/09/17 12:14:57;;;;;;;;;;;25.30;56.40;;;;;;5074888;28;20304;-58
2021/09/17 12:17:25;;;;;;;;;;;25.20;56.30;;;;;;5073246;28;19977;-57
2021/09/17 12:20:04;;;;;;;;;;;25.20;56.30;;;;;;5074623;28;19974;-57
2021/09/17 12:22:46;;;;;;;;;;;25.20;56.40;;;;;;5074537;28;19924;-56
2021/09/17 12:25:15;;;;;;;;;;;25.20;56.30;;;;;;5063989;28;19956;-58
2021/09/17 12:28:02;;;;;;;;;;;25.20;56.20;;;;;;5067495;28;19972;-58
2021/09/17 12:30:33;;;;;;;;;;;25.20;56.30;;;;;;5074552;28;19924;-56
2021/09/17 12:33:05;;;;;;;;;;;25.20;56.30;;;;;;5074482;28;20364;-56
2021/09/17 12:35:31;;;;;;;;;;;25.10;56.30;;;;;;5074449;28;19956;-56
2021/09/17 12:37:58;;;;;;;;;;;25.10;56.40;;;;;;5074578;28;19986;-56
2021/09/17 12:40:26;;;;;;;;;;;25.10;56.40;;;;;;5073975;28;20012;-56
2021/09/17 12:43:00;;;;;;;;;;;25.10;56.30;;;;;;5066433;28;20015;-57
2021/09/17 12:45:28;;;;;;;;;;;25.10;56.20;;;;;;5073704;28;20399;-58
2021/09/17 12:47:56;;;;;;;;;;;25.10;56.20;;;;;;5109162;27;19931;-55
2021/09/17 12:50:28;;;;;;;;;;;25.10;56.20;;;;;;5061705;28;19924;-57
2021/09/17 12:52:55;;;;;;;;;;;25.10;56.10;;;;;;5072836;28;20411;-57
2021/09/17 12:55:24;;;;;;;;;;;25.10;56.00;;;;;;5072611;28;19932;-57
2021/09/17 12:57:55;;;;;;;;;;;25.10;55.80;;;;;;5074841;28;20349;-55
2021/09/17 13:00:22;;;;;;;;;;;25.10;55.70;;;;;;5073864;28;19924;-56
2021/09/17 13:02:51;;;;;;;;;;;25.10;55.30;;;;;;5074609;28;20197;-56
2021/09/17 13:05:19;;;;;;;;;;;25.10;55.20;;;;;;5074377;28;20271;-56
2021/09/17 13:07:46;;;;;;;;;;;25.10;54.90;;;;;;5073937;28;19932;-58
2021/09/17 13:10:13;;;;;;;;;;;25.10;54.90;;;;;;5073962;28;20337;-56
2021/09/17 13:12:40;;;;;;;;;;;25.00;54.80;;;;;;5072440;28;19924;-57
2021/09/17 13:15:12;;;;;;;;;;;25.10;54.80;;;;;;5073955;28;19977;-58
2021/09/17 13:17:39;;;;;;;;;;;25.10;54.80;;;;;;5073776;28;19956;-57
2021/09/17 13:20:07;;;;;;;;;;;25.10;54.80;;;;;;5072673;28;20277;-57
2021/09/17 13:22:34;;;;;;;;;;;25.10;54.70;;;;;;5090895;28;20376;-57
2021/09/17 13:25:02;;;;;;;;;;;25.10;54.60;;;;;;5073830;28;19928;-57
2021/09/17 13:27:29;;;;;;;;;;;25.10;54.50;;;;;;5073252;28;20377;-56
2021/09/17 13:29:57;;;;;;;;;;;25.10;54.20;;;;;;5071428;28;19925;-58
2021/09/17 13:32:25;;;;;;;;;;;25.00;54.00;;;;;;5058688;28;19979;-58
2021/09/17 13:34:53;;;;;;;;;;;25.00;53.90;;;;;;5070317;28;19928;-57
2021/09/17 13:37:21;;;;;;;;;;;25.00;53.80;;;;;;5072384;28;19982;-57
2021/09/17 13:39:48;;;;;;;;;;;25.00;53.60;;;;;;5073364;28;20334;-58
2021/09/17 13:42:15;;;;;;;;;;;24.90;53.10;;;;;;5072347;28;19925;-57
2021/09/17 13:44:42;;;;;;;;;;;24.90;53.00;;;;;;5073144;28;19925;-56
2021/09/17 13:47:09;;;;;;;;;;;24.90;52.90;;;;;;5073545;28;20356;-58
2021/09/17 13:49:36;;;;;;;;;;;24.90;52.70;;;;;;5072455;28;19928;-58
2021/09/17 13:52:06;;;;;;;;;;;24.90;52.70;;;;;;5073319;28;19928;-58
2021/09/17 13:54:36;;;;;;;;;;;24.90;52.70;;;;;;5066908;28;19925;-58
2021/09/17 13:57:04;;;;;;;;;;;24.90;52.70;;;;;;5060929;28;19974;-58
2021/09/17 13:59:31;;;;;;;;;;;24.90;52.70;;;;;;5073054;28;19971;-55
2021/09/17 14:01:58;;;;;;;;;;;24.90;52.80;;;;;;5072290;28;19924;-58
2021/09/17 14:04:26;;;;;;;;;;;24.90;52.80;;;;;;5073274;28;19925;-58
2021/09/17 14:06:53;;;;;;;;;;;24.90;52.90;;;;;;5069954;28;19924;-58
2021/09/17 14:09:20;;;;;;;;;;;24.90;52.90;;;;;;5057801;28;20372;-58
2021/09/17 14:11:47;;;;;;;;;;;24.90;52.80;;;;;;5073103;28;19974;-58
2021/09/17 14:14:14;;;;;;;;;;;24.90;52.70;;;;;;5071860;28;19932;-58
2021/09/17 14:16:41;;;;;;;;;;;24.90;52.80;;;;;;5054401;28;19925;-58
2021/09/17 14:19:08;;;;;;;;;;;24.90;52.70;;;;;;5073381;28;19924;-57
2021/09/17 14:21:35;;;;;;;;;;;24.90;52.70;;;;;;5072470;28;20307;-58
2021/09/17 14:24:03;;;;;;;;;;;24.90;52.70;;;;;;5054356;28;19981;-57
2021/09/17 14:26:30;;;;;;;;;;;24.90;52.60;;;;;;5072653;28;20005;-57